Terminal Aerodrome Forecast
Issued by NWS

Home | Current Version | Previous Version | Graphics & Text | Print | Product List | Glossary On
Versions: 1 2 3 4 5 6 7 8 9 10 11 12 13 14 15 16 17 18 19 20 21 22
000
FTUS43 KABR 231729
TAFATY
TAF
KATY 231729Z 2318/2418 23012KT P6SM SCT200
     FM232000 16015G22KT P6SM SCT200
     FM240200 15009KT P6SM SCT200
     FM240500 15013KT P6SM BKN200 WS020/19040KT
     FM241300 17014G23KT P6SM VCSH BKN100=

USA.gov is the U.S. government's official web portal to all federal, state and local government web resources and services.